Time;durP1;ratioP1;P1;durP2;ratioP2;P2;SDS_P1;SDS_P2;PMS_P1;PMS_P2;Temp;Humidity;BMP_temperature;BMP_pressure;BME280_temperature;BME280_humidity;BME280_pressure;Samples;Min_cycle;Max_cycle;Signal;HPM_P1;HPM_P2
2023/03/07 00:01:07;;;;;;;81.18;42.38;;;4.20;99.90;;;;;;5061164;28;20199;-74
2023/03/07 00:03:35;;;;;;;70.03;40.72;;;4.30;99.90;;;;;;5069408;28;20234;-74
2023/03/07 00:06:03;;;;;;;71.70;40.17;;;4.30;99.90;;;;;;5061718;28;20206;-73
2023/03/07 00:08:30;;;;;;;66.53;36.75;;;4.20;99.90;;;;;;5045486;28;20223;-73
2023/03/07 00:11:01;;;;;;;70.70;42.38;;;4.20;99.90;;;;;;5062372;28;20239;-74
2023/03/07 00:13:31;;;;;;;70.60;39.38;;;4.30;99.90;;;;;;5060908;28;20322;-74
2023/03/07 00:16:01;;;;;;;64.80;38.80;;;4.30;99.90;;;;;;5057307;28;20661;-74
2023/03/07 00:18:29;;;;;;;79.80;39.95;;;4.30;99.90;;;;;;5066753;28;20701;-74
2023/03/07 00:21:00;;;;;;;74.25;39.50;;;4.20;99.90;;;;;;5066459;28;20259;-74
2023/03/07 00:23:27;;;;;;;71.22;39.85;;;4.20;99.90;;;;;;5059810;28;20243;-74
2023/03/07 00:25:59;;;;;;;75.90;38.40;;;4.20;99.90;;;;;;5072211;28;20287;-75
2023/03/07 00:28:26;;;;;;;73.45;38.78;;;4.30;99.90;;;;;;5063842;28;20230;-74
2023/03/07 00:30:54;;;;;;;68.70;38.22;;;4.30;99.90;;;;;;5055604;28;20278;-74
2023/03/07 00:33:21;;;;;;;73.07;40.65;;;4.20;99.90;;;;;;5059358;28;20294;-73
2023/03/07 00:36:08;;;;;;;62.85;37.00;;;4.20;99.90;;;;;;5058130;28;20566;-75
2023/03/07 00:38:35;;;;;;;64.55;38.53;;;4.10;99.90;;;;;;5053302;28;20228;-75
2023/03/07 00:41:07;;;;;;;77.82;40.10;;;4.20;99.90;;;;;;5045498;28;20596;-75
2023/03/07 00:43:35;;;;;;;66.82;38.00;;;4.10;99.90;;;;;;5065003;28;20598;-76
2023/03/07 00:46:04;;;;;;;67.10;38.72;;;4.00;99.90;;;;;;5060350;28;20274;-73
2023/03/07 00:48:33;;;;;;;63.45;38.45;;;4.00;99.90;;;;;;5063733;28;20313;-74
2023/03/07 00:51:01;;;;;;;70.95;38.55;;;3.90;99.90;;;;;;5063956;28;20203;-73
2023/03/07 00:53:28;;;;;;;64.90;36.13;;;3.80;99.90;;;;;;5057625;28;20227;-73
2023/03/07 00:55:57;;;;;;;66.00;36.67;;;3.90;99.90;;;;;;5064695;28;20203;-74
2023/03/07 00:58:25;;;;;;;68.40;36.03;;;3.80;99.90;;;;;;5066623;28;20261;-75
2023/03/07 01:00:52;;;;;;;58.92;35.22;;;3.90;99.90;;;;;;5057864;28;20203;-74
2023/03/07 01:03:22;;;;;;;69.68;36.10;;;3.80;99.90;;;;;;5064234;28;20191;-74
2023/03/07 01:05:50;;;;;;;58.70;34.78;;;3.80;99.90;;;;;;5061283;28;20291;-74
2023/03/07 01:08:18;;;;;;;69.88;35.65;;;3.80;99.90;;;;;;5069600;28;20261;-74
2023/03/07 01:10:47;;;;;;;63.22;35.53;;;3.80;99.90;;;;;;5069728;28;20285;-74
2023/03/07 01:13:15;;;;;;;62.47;34.78;;;3.90;99.90;;;;;;5072429;28;20630;-74
2023/03/07 01:15:45;;;;;;;65.38;35.25;;;3.90;99.90;;;;;;5074453;28;20268;-74
2023/03/07 01:18:12;;;;;;;58.67;32.53;;;3.80;99.90;;;;;;5060313;28;20307;-75
2023/03/07 01:20:42;;;;;;;56.42;34.95;;;3.80;99.90;;;;;;5064289;28;20195;-75
2023/03/07 01:23:09;;;;;;;70.07;34.00;;;3.80;99.90;;;;;;5054833;28;20242;-75
2023/03/07 01:25:41;;;;;;;65.38;34.70;;;3.80;99.90;;;;;;5057920;28;20235;-75
2023/03/07 01:28:09;;;;;;;58.17;32.92;;;3.80;99.90;;;;;;5062626;28;20268;-74
2023/03/07 01:30:36;;;;;;;53.72;33.55;;;3.80;99.90;;;;;;5064716;28;20196;-73
2023/03/07 01:33:03;;;;;;;63.85;33.25;;;3.70;99.90;;;;;;5057247;28;20203;-75
2023/03/07 01:35:35;;;;;;;63.78;32.75;;;3.80;99.90;;;;;;5059279;28;20259;-75
2023/03/07 01:38:04;;;;;;;53.08;30.48;;;3.80;99.90;;;;;;5060986;28;20257;-74
2023/03/07 01:40:31;;;;;;;61.05;30.70;;;3.80;99.90;;;;;;5064983;28;20210;-73
2023/03/07 01:43:22;;;;;;;52.47;31.98;;;3.90;99.90;;;;;;5049427;28;20282;-74
2023/03/07 01:46:28;;;;;;;50.10;27.10;;;3.90;99.90;;;;;;5056591;28;20748;-75
2023/03/07 01:48:59;;;;;;;49.13;27.88;;;3.80;99.90;;;;;;5049693;28;20272;-74
2023/03/07 01:51:28;;;;;;;48.17;27.55;;;3.90;99.90;;;;;;5055612;28;20204;-74
2023/03/07 01:53:58;;;;;;;42.08;23.90;;;3.90;99.90;;;;;;5055209;28;20704;-73
2023/03/07 01:56:26;;;;;;;43.60;25.40;;;3.80;99.90;;;;;;5060195;28;20217;-74
2023/03/07 01:58:55;;;;;;;43.40;23.98;;;3.90;99.90;;;;;;5055185;28;20219;-75
2023/03/07 02:01:26;;;;;;;38.25;23.00;;;3.90;99.90;;;;;;5054004;28;20662;-74
2023/03/07 02:03:56;;;;;;;42.10;22.90;;;3.90;99.90;;;;;;5050139;28;20256;-74
2023/03/07 02:06:26;;;;;;;34.75;21.20;;;3.90;99.90;;;;;;5041957;28;20208;-75
2023/03/07 02:08:55;;;;;;;34.45;20.15;;;3.90;99.90;;;;;;5041189;28;20259;-73
2023/03/07 02:11:24;;;;;;;36.22;21.70;;;3.90;99.90;;;;;;5055353;28;20572;-75
2023/03/07 02:13:51;;;;;;;34.22;21.15;;;3.90;99.90;;;;;;5048937;28;20528;-75
2023/03/07 02:16:19;;;;;;;35.40;20.27;;;4.00;99.90;;;;;;5054786;28;20234;-74
2023/03/07 02:18:50;;;;;;;34.30;20.90;;;4.00;99.90;;;;;;5053551;28;20615;-73
2023/03/07 02:21:30;;;;;;;33.25;21.13;;;4.00;99.90;;;;;;5060079;28;20202;-75
2023/03/07 02:24:03;;;;;;;37.88;20.92;;;4.10;99.90;;;;;;5053702;28;20207;-74
2023/03/07 02:26:49;;;;;;;33.13;18.58;;;4.20;99.90;;;;;;5051078;28;20204;-74
2023/03/07 02:29:16;;;;;;;32.15;18.90;;;4.10;99.90;;;;;;5048988;28;20237;-73
2023/03/07 02:31:45;;;;;;;33.50;20.73;;;4.10;99.90;;;;;;5055411;28;20318;-75
2023/03/07 02:34:21;;;;;;;28.80;16.88;;;4.20;99.90;;;;;;5048052;28;20255;-75
2023/03/07 02:36:53;;;;;;;21.90;16.60;;;4.20;99.90;;;;;;5063942;28;20604;-73
2023/03/07 02:39:22;;;;;;;19.40;14.02;;;4.30;99.90;;;;;;5059424;28;20223;-75
2023/03/07 02:41:53;;;;;;;21.33;14.75;;;4.30;99.90;;;;;;5058687;28;20305;-74
2023/03/07 02:44:21;;;;;;;18.30;13.65;;;4.30;99.90;;;;;;5062952;28;20249;-75
2023/03/07 02:46:48;;;;;;;23.02;13.52;;;4.30;99.90;;;;;;5062044;28;20290;-73
2023/03/07 02:49:15;;;;;;;19.80;13.35;;;4.30;99.90;;;;;;5063416;28;20253;-74
2023/03/07 02:51:42;;;;;;;17.88;13.20;;;4.30;99.90;;;;;;5063391;28;20321;-75
2023/03/07 02:54:09;;;;;;;24.08;15.15;;;4.30;99.90;;;;;;5051330;28;20261;-74
2023/03/07 02:56:37;;;;;;;17.90;13.23;;;4.30;99.90;;;;;;5066661;28;20204;-75
2023/03/07 02:59:05;;;;;;;22.75;13.10;;;4.30;99.90;;;;;;5056610;28;20250;-73
2023/03/07 03:01:32;;;;;;;22.30;13.23;;;4.30;99.90;;;;;;5056320;28;20290;-74
2023/03/07 03:03:59;;;;;;;16.35;11.98;;;4.30;99.90;;;;;;5069892;28;20197;-74
2023/03/07 03:06:26;;;;;;;16.63;10.88;;;4.30;99.90;;;;;;5061810;28;20200;-75
2023/03/07 03:08:53;;;;;;;15.18;9.23;;;4.30;99.90;;;;;;5071257;28;20273;-76
2023/03/07 03:11:20;;;;;;;14.65;9.73;;;4.30;99.90;;;;;;5064327;28;20227;-73
2023/03/07 03:13:47;;;;;;;17.27;9.93;;;4.30;99.90;;;;;;5061885;28;20303;-75
2023/03/07 03:16:16;;;;;;;13.70;8.77;;;4.30;99.90;;;;;;5063053;28;20303;-74
2023/03/07 03:18:43;;;;;;;10.75;7.65;;;4.30;99.90;;;;;;5063952;28;20230;-74
2023/03/07 03:21:10;;;;;;;15.77;9.57;;;4.20;99.90;;;;;;5061561;28;20208;-74
2023/03/07 03:23:37;;;;;;;10.15;7.00;;;4.20;99.90;;;;;;5064355;28;20319;-74
2023/03/07 03:26:07;;;;;;;11.30;7.40;;;4.20;99.90;;;;;;5068935;28;20279;-73
2023/03/07 03:28:34;;;;;;;11.30;8.13;;;4.20;99.90;;;;;;5066064;28;20266;-75
2023/03/07 03:31:05;;;;;;;12.43;6.45;;;4.20;99.90;;;;;;5065907;28;20673;-73
2023/03/07 03:33:34;;;;;;;12.02;7.95;;;4.10;99.90;;;;;;5060869;28;20239;-74
2023/03/07 03:36:11;;;;;;;9.13;6.28;;;4.10;99.90;;;;;;5048825;28;20738;-75
2023/03/07 03:38:38;;;;;;;8.63;5.75;;;4.10;99.90;;;;;;5058200;28;20278;-74
2023/03/07 03:41:06;;;;;;;7.22;5.30;;;4.10;99.90;;;;;;5065434;28;20191;-74
2023/03/07 03:43:39;;;;;;;11.38;5.20;;;4.10;99.90;;;;;;5064228;28;20290;-75
2023/03/07 03:46:06;;;;;;;9.93;6.97;;;4.10;99.90;;;;;;5070959;28;20218;-74
2023/03/07 03:48:35;;;;;;;8.13;6.32;;;4.00;99.90;;;;;;5053795;28;20227;-73
2023/03/07 03:51:03;;;;;;;9.30;5.70;;;4.00;99.90;;;;;;5065335;28;20231;-73
2023/03/07 03:53:31;;;;;;;11.50;7.20;;;4.00;99.90;;;;;;5068167;28;20199;-74
2023/03/07 03:56:02;;;;;;;8.65;5.75;;;4.00;99.90;;;;;;5065956;28;20333;-74
2023/03/07 03:58:29;;;;;;;11.25;5.72;;;4.00;99.90;;;;;;5069949;28;20234;-72
2023/03/07 04:00:56;;;;;;;7.28;5.43;;;4.00;99.90;;;;;;5062411;28;20203;-74
2023/03/07 04:03:23;;;;;;;9.00;6.05;;;4.00;99.90;;;;;;5068293;28;20207;-73
2023/03/07 04:05:52;;;;;;;9.60;5.30;;;4.00;99.90;;;;;;5064136;28;20613;-73
2023/03/07 04:08:20;;;;;;;14.75;5.75;;;4.00;99.90;;;;;;5061770;28;20226;-74
2023/03/07 04:10:47;;;;;;;13.35;5.38;;;4.00;99.90;;;;;;5054331;28;20301;-75
2023/03/07 04:13:15;;;;;;;10.63;5.07;;;3.90;99.90;;;;;;5058942;28;20626;-73
2023/03/07 04:15:42;;;;;;;6.47;4.32;;;3.90;99.90;;;;;;5054854;28;20216;-73
2023/03/07 04:18:09;;;;;;;11.48;6.10;;;3.90;99.90;;;;;;5063665;28;20283;-75
2023/03/07 04:20:36;;;;;;;9.27;5.35;;;3.90;99.90;;;;;;5060110;28;20202;-73
2023/03/07 04:23:05;;;;;;;7.60;4.65;;;3.90;99.90;;;;;;5054796;28;20233;-76
2023/03/07 04:25:32;;;;;;;10.65;4.03;;;3.80;99.90;;;;;;5059008;28;20231;-74
2023/03/07 04:27:59;;;;;;;5.50;4.13;;;3.80;99.90;;;;;;5061639;28;20209;-74
2023/03/07 04:30:26;;;;;;;8.82;4.10;;;3.90;99.90;;;;;;5053120;28;20211;-74
2023/03/07 04:32:53;;;;;;;8.02;4.07;;;3.80;99.90;;;;;;5055829;28;20233;-72
2023/03/07 04:35:21;;;;;;;17.17;3.90;;;3.80;99.90;;;;;;5057943;28;20284;-74
2023/03/07 04:37:49;;;;;;;11.25;3.95;;;3.80;99.90;;;;;;5052772;28;20253;-75
2023/03/07 04:40:18;;;;;;;9.52;3.63;;;3.80;99.90;;;;;;5044507;28;20208;-74
2023/03/07 04:42:45;;;;;;;6.63;3.10;;;3.80;99.90;;;;;;5063863;28;20570;-74
2023/03/07 04:45:13;;;;;;;6.38;3.60;;;3.90;99.90;;;;;;5055939;28;20230;-74
2023/03/07 04:47:40;;;;;;;13.70;3.50;;;3.80;99.90;;;;;;5060686;28;20294;-74
2023/03/07 04:50:08;;;;;;;7.00;4.25;;;3.80;99.90;;;;;;5059671;28;20266;-74
2023/03/07 04:52:35;;;;;;;6.30;5.10;;;3.80;99.90;;;;;;5055615;28;20214;-75
2023/03/07 04:55:03;;;;;;;9.75;5.47;;;3.80;99.90;;;;;;5062255;28;20616;-74
2023/03/07 04:57:31;;;;;;;7.30;4.43;;;3.80;99.90;;;;;;5058707;28;20657;-74
2023/03/07 04:59:58;;;;;;;16.88;5.65;;;3.80;99.90;;;;;;5057291;28;20257;-74
2023/03/07 05:02:25;;;;;;;12.82;4.07;;;3.80;99.90;;;;;;5055882;28;20199;-74
2023/03/07 05:04:52;;;;;;;7.65;3.08;;;3.80;99.90;;;;;;5057096;28;20194;-74
2023/03/07 05:07:19;;;;;;;5.18;2.83;;;3.90;99.90;;;;;;5064411;28;20285;-74
2023/03/07 05:09:46;;;;;;;6.05;3.30;;;4.00;99.90;;;;;;5064863;28;20261;-74
2023/03/07 05:12:13;;;;;;;6.00;3.47;;;4.00;99.90;;;;;;5065892;28;20211;-75
2023/03/07 05:14:41;;;;;;;9.45;3.53;;;4.00;99.90;;;;;;5065762;28;20238;-74
2023/03/07 05:17:09;;;;;;;8.05;3.20;;;4.00;99.90;;;;;;5056386;28;20286;-74
2023/03/07 05:19:36;;;;;;;6.28;3.70;;;4.10;99.90;;;;;;5046934;28;20227;-74
2023/03/07 05:22:03;;;;;;;9.63;2.88;;;4.00;99.90;;;;;;5063131;28;20199;-74
2023/03/07 05:24:30;;;;;;;5.38;2.58;;;4.00;99.90;;;;;;5055788;28;20218;-74
2023/03/07 05:26:56;;;;;;;9.90;2.60;;;4.10;99.90;;;;;;5065594;28;20226;-74
2023/03/07 05:29:23;;;;;;;4.65;2.45;;;4.10;99.90;;;;;;5060679;28;20235;-74
2023/03/07 05:31:52;;;;;;;5.95;2.28;;;4.00;99.90;;;;;;5058650;28;20222;-73
2023/03/07 05:34:19;;;;;;;4.50;1.50;;;4.00;99.90;;;;;;5054449;28;20199;-74
2023/03/07 05:36:46;;;;;;;3.90;1.83;;;4.00;99.90;;;;;;5056547;28;20658;-74
2023/03/07 05:39:14;;;;;;;6.65;2.70;;;3.90;99.90;;;;;;5060102;28;20321;-77
2023/03/07 05:41:41;;;;;;;6.07;3.08;;;3.90;99.90;;;;;;5056649;28;20254;-74
2023/03/07 05:44:08;;;;;;;5.93;1.90;;;4.00;99.90;;;;;;5058625;28;20622;-75
2023/03/07 05:46:35;;;;;;;10.32;2.40;;;3.90;99.90;;;;;;5045475;28;20192;-74
2023/03/07 05:49:03;;;;;;;14.30;2.75;;;3.90;99.90;;;;;;5049706;28;20704;-74
2023/03/07 05:51:30;;;;;;;6.78;2.92;;;3.90;99.90;;;;;;5063487;28;20293;-73
2023/03/07 05:53:57;;;;;;;5.22;1.70;;;3.90;99.90;;;;;;5059822;28;20370;-74
2023/03/07 05:56:25;;;;;;;11.07;2.63;;;3.90;99.90;;;;;;5062989;28;20298;-73
2023/03/07 05:58:52;;;;;;;7.80;1.52;;;3.90;99.90;;;;;;5059186;28;20247;-74
2023/03/07 06:01:41;;;;;;;9.35;1.60;;;3.80;99.90;;;;;;5059099;28;20657;-74
2023/03/07 06:04:10;;;;;;;9.45;2.67;;;3.80;99.90;;;;;;5058683;28;20598;-75
2023/03/07 06:06:37;;;;;;;7.13;1.83;;;3.80;99.90;;;;;;5069572;28;20210;-75
2023/03/07 06:09:06;;;;;;;4.75;2.83;;;3.80;99.90;;;;;;5056536;28;20311;-74
2023/03/07 06:11:33;;;;;;;7.75;1.83;;;3.80;99.90;;;;;;5065342;28;20212;-75
2023/03/07 06:14:00;;;;;;;7.43;3.05;;;3.90;99.90;;;;;;5053839;28;20681;-74
2023/03/07 06:16:27;;;;;;;6.75;1.30;;;3.80;99.90;;;;;;5054823;28;20314;-75
2023/03/07 06:18:54;;;;;;;5.35;1.55;;;3.90;99.90;;;;;;5057864;28;20227;-74
2023/03/07 06:21:22;;;;;;;4.28;1.70;;;4.00;99.90;;;;;;5053784;28;20195;-75
2023/03/07 06:23:49;;;;;;;4.25;1.70;;;3.90;99.90;;;;;;5061872;28;20649;-74
2023/03/07 06:26:16;;;;;;;4.43;1.10;;;3.80;99.90;;;;;;5060490;28;20203;-74
2023/03/07 06:28:43;;;;;;;4.03;2.60;;;3.90;99.90;;;;;;5053619;28;20269;-74
2023/03/07 06:31:11;;;;;;;3.85;3.20;;;3.90;99.90;;;;;;5055373;28;20289;-75
2023/03/07 06:33:38;;;;;;;5.22;2.40;;;4.00;99.90;;;;;;5062225;28;20678;-76
2023/03/07 06:36:07;;;;;;;7.90;1.90;;;4.10;99.90;;;;;;5064548;28;20260;-74
2023/03/07 06:38:35;;;;;;;3.55;1.80;;;4.10;99.90;;;;;;5057665;28;20273;-73
2023/03/07 06:41:02;;;;;;;10.77;2.72;;;4.10;99.90;;;;;;5060887;28;20206;-76
2023/03/07 06:43:30;;;;;;;7.90;1.77;;;4.10;99.90;;;;;;5049838;28;20203;-76
2023/03/07 06:45:58;;;;;;;11.85;2.80;;;4.20;99.90;;;;;;5055614;28;20207;-74
2023/03/07 06:48:25;;;;;;;2.80;1.95;;;4.20;99.90;;;;;;5054935;28;20235;-75
2023/03/07 06:50:52;;;;;;;7.40;1.92;;;4.10;99.90;;;;;;5051800;28;20277;-76
2023/03/07 06:53:19;;;;;;;17.70;2.55;;;4.30;99.90;;;;;;5057753;28;20206;-76
2023/03/07 06:55:55;;;;;;;8.63;1.55;;;4.40;99.90;;;;;;5051874;28;20666;-74
2023/03/07 06:58:21;;;;;;;4.80;1.45;;;4.60;99.90;;;;;;5053202;28;20254;-76
2023/03/07 07:00:49;;;;;;;5.93;1.50;;;4.60;99.90;;;;;;5055651;28;20211;-74
2023/03/07 07:03:18;;;;;;;7.70;1.80;;;4.70;99.90;;;;;;5057806;28;20191;-74
2023/03/07 07:05:45;;;;;;;4.10;1.88;;;4.60;99.90;;;;;;5063792;28;20230;-75
2023/03/07 07:08:12;;;;;;;4.68;1.40;;;4.70;99.90;;;;;;5063149;28;20223;-76
2023/03/07 07:10:39;;;;;;;7.45;1.70;;;4.70;99.90;;;;;;5057045;28;20354;-75
2023/03/07 07:13:11;;;;;;;5.32;1.20;;;4.80;99.90;;;;;;5065281;28;20219;-74
2023/03/07 07:15:38;;;;;;;6.82;1.75;;;4.90;99.90;;;;;;5056887;28;20368;-74
2023/03/07 07:18:05;;;;;;;8.35;1.60;;;4.90;99.90;;;;;;5063466;28;20241;-76
2023/03/07 07:20:32;;;;;;;6.47;1.85;;;4.90;99.90;;;;;;5059831;28;20269;-74
2023/03/07 07:23:00;;;;;;;8.20;1.95;;;5.00;99.90;;;;;;5048915;28;20203;-72
2023/03/07 07:25:27;;;;;;;5.10;1.60;;;5.10;99.90;;;;;;5062461;28;20196;-73
2023/03/07 07:27:54;;;;;;;11.95;1.90;;;5.20;99.90;;;;;;5055695;28;20684;-74
2023/03/07 07:30:23;;;;;;;6.15;2.28;;;4.90;99.90;;;;;;5058898;28;20199;-72
2023/03/07 07:32:51;;;;;;;2.35;1.60;;;5.20;99.90;;;;;;5048450;28;20212;-72
2023/03/07 07:35:18;;;;;;;5.68;1.70;;;5.20;99.90;;;;;;5044731;28;20290;-72
2023/03/07 07:37:45;;;;;;;8.10;1.75;;;5.30;99.90;;;;;;5057345;28;20663;-72
2023/03/07 07:40:14;;;;;;;14.15;2.05;;;5.30;99.90;;;;;;5054723;28;20224;-72
2023/03/07 07:42:43;;;;;;;9.27;2.15;;;5.10;99.90;;;;;;5059652;28;20207;-70
2023/03/07 07:45:11;;;;;;;14.27;2.90;;;5.20;99.90;;;;;;5053101;28;20211;-72
2023/03/07 07:47:39;;;;;;;15.30;1.88;;;5.10;99.90;;;;;;5063765;28;20249;-74
2023/03/07 07:50:07;;;;;;;6.53;1.77;;;5.10;99.90;;;;;;5062104;28;20775;-74
2023/03/07 07:52:35;;;;;;;4.53;1.65;;;5.20;99.90;;;;;;5061489;28;20209;-71
2023/03/07 07:55:02;;;;;;;12.45;2.17;;;5.10;99.90;;;;;;5061500;28;20218;-74
2023/03/07 07:57:30;;;;;;;6.63;1.45;;;5.00;99.90;;;;;;5057385;28;20231;-72
2023/03/07 07:59:57;;;;;;;8.90;1.52;;;5.20;99.90;;;;;;5055717;28;20291;-74
2023/03/07 08:02:24;;;;;;;6.45;1.50;;;5.20;99.90;;;;;;5056217;28;20216;-72
2023/03/07 08:04:52;;;;;;;6.38;1.98;;;5.00;99.90;;;;;;5064493;28;20190;-73
2023/03/07 08:07:19;;;;;;;7.60;1.75;;;5.00;99.90;;;;;;5046184;28;20200;-71
2023/03/07 08:09:47;;;;;;;5.78;3.40;;;5.00;99.90;;;;;;5061308;28;20307;-75
2023/03/07 08:12:14;;;;;;;8.48;2.03;;;5.10;99.90;;;;;;5064465;28;20224;-75
2023/03/07 08:14:41;;;;;;;4.50;1.60;;;5.10;99.90;;;;;;5064518;28;20204;-72
2023/03/07 08:17:08;;;;;;;12.40;2.00;;;5.10;99.90;;;;;;5064184;28;20214;-75
2023/03/07 08:19:35;;;;;;;10.85;1.63;;;5.00;99.90;;;;;;5055947;28;20234;-74
2023/03/07 08:22:04;;;;;;;4.85;1.80;;;5.10;99.90;;;;;;5065009;28;20282;-74
2023/03/07 08:24:33;;;;;;;6.60;2.10;;;5.20;99.90;;;;;;5053820;28;20204;-74
2023/03/07 08:27:01;;;;;;;7.43;2.35;;;5.20;99.90;;;;;;5050191;28;20257;-73
2023/03/07 08:29:28;;;;;;;4.82;1.75;;;5.20;99.90;;;;;;5060535;28;20658;-73
2023/03/07 08:31:55;;;;;;;7.88;1.70;;;5.30;99.90;;;;;;5061563;28;20289;-74
2023/03/07 08:34:23;;;;;;;6.35;1.80;;;5.50;99.90;;;;;;5059998;28;20602;-73
2023/03/07 08:36:51;;;;;;;8.38;1.88;;;5.50;99.90;;;;;;5047908;28;20275;-75
2023/03/07 08:39:20;;;;;;;8.98;1.80;;;5.60;99.90;;;;;;5052964;28;20232;-73
2023/03/07 08:41:47;;;;;;;3.55;1.10;;;5.50;99.90;;;;;;5055906;28;20207;-74
2023/03/07 08:44:14;;;;;;;7.35;1.65;;;5.50;99.90;;;;;;5060292;28;20290;-74
2023/03/07 08:46:41;;;;;;;5.50;1.48;;;5.40;99.90;;;;;;5055389;28;20239;-75
2023/03/07 08:49:08;;;;;;;4.80;1.50;;;5.30;99.90;;;;;;5053589;28;20249;-74
2023/03/07 08:51:35;;;;;;;14.93;3.13;;;5.50;99.90;;;;;;5054301;28;20236;-74
2023/03/07 08:54:02;;;;;;;3.58;1.17;;;5.40;99.90;;;;;;5054795;28;20282;-74
2023/03/07 08:56:30;;;;;;;3.75;1.63;;;5.40;99.90;;;;;;5053186;28;20212;-76
2023/03/07 08:58:57;;;;;;;6.57;1.85;;;5.60;99.90;;;;;;5058216;28;20219;-73
2023/03/07 09:01:24;;;;;;;7.35;2.08;;;5.60;99.90;;;;;;5052718;28;20311;-76
2023/03/07 09:03:52;;;;;;;11.15;2.95;;;5.80;99.90;;;;;;5062262;28;20285;-75
2023/03/07 09:06:21;;;;;;;8.05;2.65;;;5.90;99.90;;;;;;5061320;28;20857;-74
2023/03/07 09:08:49;;;;;;;3.50;1.50;;;5.80;99.90;;;;;;5038618;28;20314;-73
2023/03/07 09:11:17;;;;;;;7.25;2.00;;;5.90;99.90;;;;;;5065864;28;20216;-74
2023/03/07 09:13:45;;;;;;;5.38;2.20;;;5.80;99.90;;;;;;5067915;28;20546;-75
2023/03/07 09:16:12;;;;;;;6.30;1.80;;;5.70;99.90;;;;;;5056988;28;20229;-75
2023/03/07 09:18:39;;;;;;;7.55;1.80;;;5.70;99.90;;;;;;5058477;28;20244;-75
2023/03/07 09:21:09;;;;;;;4.72;1.75;;;5.90;99.90;;;;;;5058256;28;20201;-74
2023/03/07 09:23:36;;;;;;;5.03;1.58;;;6.00;99.90;;;;;;5070431;28;20231;-76
2023/03/07 09:26:04;;;;;;;5.43;2.60;;;5.80;99.90;;;;;;5066293;28;20325;-75
2023/03/07 09:28:33;;;;;;;5.60;2.22;;;5.90;99.90;;;;;;5062473;28;20228;-76
2023/03/07 09:31:07;;;;;;;12.18;2.60;;;6.00;99.90;;;;;;5066137;28;20200;-75
2023/03/07 09:33:34;;;;;;;6.50;1.65;;;6.10;99.90;;;;;;5061835;28;20349;-75
2023/03/07 09:36:05;;;;;;;6.68;1.98;;;6.20;99.90;;;;;;5056738;28;20372;-79
2023/03/07 09:38:32;;;;;;;8.02;2.10;;;6.20;99.90;;;;;;5061574;28;20226;-74
2023/03/07 09:41:08;;;;;;;7.40;1.70;;;6.40;99.90;;;;;;5063630;28;20228;-76
2023/03/07 09:43:44;;;;;;;6.15;1.50;;;6.40;99.90;;;;;;5049553;28;20214;-75
2023/03/07 09:46:23;;;;;;;6.70;1.30;;;6.20;99.90;;;;;;5043904;28;20237;-76
2023/03/07 09:49:16;;;;;;;5.88;1.80;;;6.20;99.90;;;;;;5048936;28;20224;-77
2023/03/07 09:51:45;;;;;;;6.32;1.85;;;6.20;99.90;;;;;;5051106;28;20209;-77
2023/03/07 09:54:16;;;;;;;4.03;2.00;;;6.10;99.90;;;;;;5058666;28;20208;-74
2023/03/07 09:56:47;;;;;;;8.55;1.73;;;6.10;99.90;;;;;;5058512;28;20249;-74
2023/03/07 09:59:21;;;;;;;9.52;2.47;;;6.30;99.90;;;;;;5060370;28;20675;-75
2023/03/07 10:01:55;;;;;;;5.45;1.50;;;6.50;99.90;;;;;;5056928;28;20635;-74
2023/03/07 10:04:27;;;;;;;4.88;2.40;;;6.70;99.90;;;;;;5057724;28;20200;-74
2023/03/07 10:06:58;;;;;;;10.68;2.10;;;6.80;99.90;;;;;;5065978;28;20724;-74
2023/03/07 10:09:26;;;;;;;4.72;1.92;;;6.60;99.90;;;;;;5059175;28;20304;-74
2023/03/07 10:12:17;;;;;;;8.02;1.98;;;6.60;99.90;;;;;;5059633;28;20195;-73
2023/03/07 10:15:05;;;;;;;4.00;1.40;;;6.40;99.90;;;;;;5062232;28;20232;-74
2023/03/07 10:17:59;;;;;;;7.35;2.20;;;6.40;99.90;;;;;;5052558;28;20227;-75
2023/03/07 10:20:42;;;;;;;5.70;2.15;;;6.40;99.90;;;;;;5062769;28;20207;-73
2023/03/07 10:23:28;;;;;;;5.53;1.30;;;6.40;99.90;;;;;;5041746;28;20547;-75
2023/03/07 10:26:01;;;;;;;7.13;2.00;;;6.50;99.90;;;;;;5054486;28;20293;-75
2023/03/07 10:28:31;;;;;;;4.10;1.70;;;6.70;99.90;;;;;;5060412;28;20689;-74
2023/03/07 10:31:13;;;;;;;3.38;1.23;;;6.80;99.90;;;;;;5042705;28;20201;-74
2023/03/07 10:33:45;;;;;;;9.50;1.85;;;6.80;99.90;;;;;;5055078;28;20209;-75
2023/03/07 10:36:18;;;;;;;12.48;3.15;;;6.90;99.90;;;;;;5058264;28;20330;-74
2023/03/07 10:38:57;;;;;;;3.05;1.60;;;6.60;99.90;;;;;;5051249;28;20222;-75
2023/03/07 10:41:24;;;;;;;3.88;1.77;;;6.40;99.90;;;;;;5055661;28;20272;-74
2023/03/07 10:43:55;;;;;;;8.13;2.40;;;6.40;99.90;;;;;;5059243;28;20192;-76
2023/03/07 10:46:25;;;;;;;2.08;1.50;;;5.90;99.90;;;;;;5055338;28;20290;-74
2023/03/07 10:48:55;;;;;;;7.85;2.08;;;5.30;99.90;;;;;;5046252;28;20258;-76
2023/03/07 10:51:37;;;;;;;3.65;2.38;;;5.10;99.90;;;;;;5054407;28;20554;-78
2023/03/07 10:54:06;;;;;;;4.82;1.77;;;4.80;99.90;;;;;;5053936;28;20226;-75
2023/03/07 10:56:33;;;;;;;6.75;2.15;;;4.80;99.90;;;;;;5045032;28;20575;-75
2023/03/07 10:59:02;;;;;;;12.82;4.03;;;4.80;99.90;;;;;;5060980;28;20222;-75
2023/03/07 11:01:30;;;;;;;7.75;1.58;;;4.80;99.90;;;;;;5053768;28;20235;-75
2023/03/07 11:04:00;;;;;;;4.00;1.73;;;5.00;99.90;;;;;;5064468;28;20256;-76
2023/03/07 11:06:33;;;;;;;5.85;2.53;;;5.10;99.90;;;;;;5061634;28;20387;-75
2023/03/07 11:09:16;;;;;;;7.55;2.20;;;5.40;99.90;;;;;;5060518;28;20221;-74
2023/03/07 11:11:49;;;;;;;10.48;2.22;;;5.70;99.90;;;;;;5064977;28;20209;-75
2023/03/07 11:14:16;;;;;;;4.53;1.67;;;5.90;99.90;;;;;;5046884;28;20225;-73
2023/03/07 11:16:49;;;;;;;4.35;1.60;;;6.20;99.90;;;;;;5064457;28;20226;-74
2023/03/07 11:19:39;;;;;;;3.92;1.13;;;6.40;99.90;;;;;;5063853;28;20635;-74
2023/03/07 11:22:18;;;;;;;3.95;2.22;;;6.80;99.90;;;;;;5049803;28;20287;-74
2023/03/07 11:24:52;;;;;;;4.15;1.30;;;7.10;99.90;;;;;;5061288;28;20266;-74
2023/03/07 11:27:23;;;;;;;6.82;2.03;;;6.90;99.90;;;;;;5064122;28;20233;-75
2023/03/07 11:30:23;;;;;;;15.13;1.73;;;7.00;99.90;;;;;;5063503;28;20226;-74
2023/03/07 11:33:04;;;;;;;7.45;1.67;;;7.20;99.90;;;;;;5057644;28;20214;-75
2023/03/07 11:35:58;;;;;;;6.45;2.40;;;7.30;99.90;;;;;;5059966;28;20299;-75
2023/03/07 11:38:38;;;;;;;6.63;2.92;;;7.40;99.90;;;;;;5055312;28;20237;-75
2023/03/07 11:41:10;;;;;;;8.15;1.88;;;7.50;99.90;;;;;;5049157;28;20228;-74
2023/03/07 11:43:47;;;;;;;6.15;1.77;;;7.30;99.90;;;;;;5064547;28;20643;-76
2023/03/07 11:46:24;;;;;;;4.38;2.00;;;7.30;99.90;;;;;;5055140;28;20234;-75
2023/03/07 11:49:00;;;;;;;8.40;1.98;;;7.50;99.90;;;;;;5070217;28;20647;-76
2023/03/07 11:51:40;;;;;;;10.55;2.20;;;7.20;99.90;;;;;;5055428;28;20217;-76
2023/03/07 11:54:18;;;;;;;7.53;1.95;;;7.20;99.90;;;;;;5047071;28;20911;-75
2023/03/07 11:56:50;;;;;;;14.27;2.15;;;6.90;99.90;;;;;;5065073;28;20197;-75
2023/03/07 11:59:52;;;;;;;4.32;2.10;;;6.50;99.90;;;;;;5055598;28;20229;-76
2023/03/07 12:02:54;;;;;;;5.45;1.30;;;6.40;99.90;;;;;;5034599;28;20206;-74
2023/03/07 12:05:40;;;;;;;7.25;2.90;;;6.60;99.90;;;;;;5056122;28;20213;-75
2023/03/07 12:08:51;;;;;;;2.33;1.23;;;6.60;99.90;;;;;;5057575;28;20205;-74
2023/03/07 12:11:33;;;;;;;2.97;1.90;;;6.50;99.90;;;;;;5012875;28;20615;-74
2023/03/07 12:14:11;;;;;;;9.30;2.65;;;6.40;99.90;;;;;;5027812;28;20237;-75
2023/03/07 12:16:46;;;;;;;8.00;1.50;;;6.50;99.90;;;;;;5063941;28;20209;-76
2023/03/07 12:19:31;;;;;;;4.68;1.63;;;6.80;99.90;;;;;;5054038;28;20217;-75
2023/03/07 12:22:23;;;;;;;5.25;1.38;;;7.10;99.90;;;;;;5048669;28;20213;-75
2023/03/07 12:25:11;;;;;;;8.52;2.40;;;7.30;99.90;;;;;;5058184;28;20282;-76
2023/03/07 12:27:42;;;;;;;13.15;2.10;;;7.60;99.90;;;;;;5058913;28;20203;-75
2023/03/07 12:30:17;;;;;;;8.40;2.10;;;7.80;99.90;;;;;;5058037;28;20237;-74
2023/03/07 12:32:44;;;;;;;23.52;5.10;;;8.00;99.90;;;;;;5067884;28;20206;-75
2023/03/07 12:35:22;;;;;;;8.77;1.50;;;8.00;99.90;;;;;;5055028;28;20334;-73
2023/03/07 12:37:54;;;;;;;7.38;2.45;;;7.70;99.90;;;;;;5053299;28;20316;-76
2023/03/07 12:40:28;;;;;;;5.20;1.40;;;7.80;99.90;;;;;;5061374;28;20211;-75
2023/03/07 12:43:02;;;;;;;3.72;1.88;;;7.70;99.90;;;;;;5048381;28;20617;-76
2023/03/07 12:45:38;;;;;;;4.85;1.70;;;7.80;99.90;;;;;;5057556;28;20257;-77
2023/03/07 12:48:12;;;;;;;9.27;3.83;;;7.90;99.90;;;;;;5055571;28;20233;-74
2023/03/07 12:50:49;;;;;;;9.05;1.75;;;8.10;99.90;;;;;;5060105;28;20657;-76
2023/03/07 12:53:32;;;;;;;16.27;2.90;;;8.20;99.90;;;;;;5060226;28;20198;-73
2023/03/07 12:56:06;;;;;;;9.00;2.28;;;8.20;99.90;;;;;;5051915;28;20239;-75
2023/03/07 12:58:39;;;;;;;7.97;1.58;;;8.50;99.90;;;;;;5063943;28;20594;-78
2023/03/07 13:01:13;;;;;;;11.90;1.90;;;8.40;99.90;;;;;;5049873;28;20203;-75
2023/03/07 13:03:47;;;;;;;3.95;1.55;;;8.50;99.90;;;;;;5057917;28;20236;-76
2023/03/07 13:06:18;;;;;;;3.17;1.45;;;8.20;99.90;;;;;;5067426;28;20206;-75
2023/03/07 13:08:48;;;;;;;7.80;1.73;;;8.10;99.10;;;;;;5063392;28;20230;-75